RJTL(METAR)
08/23 01:00
METAR RJTL 221600Z VRB01KT 9999 SCT010 BKN230 27/25 Q1011 RMK 3CU010
A2987=
戻る
トップページへ戻る
IMOC Co,.Ltd.